createdAt,value
2022-08-26T00:02:23.162Z,101392.75
2022-08-26T00:05:27.512Z,101392.22
2022-08-26T00:08:31.278Z,101392.22
2022-08-26T00:11:35.219Z,101389.91
2022-08-26T00:14:38.900Z,101387.56
2022-08-26T00:17:44.645Z,101389.72
2022-08-26T00:20:48.674Z,101389.06
2022-08-26T00:23:52.596Z,101386.50
2022-08-26T00:26:56.253Z,101397.41
2022-08-26T00:29:59.783Z,101376.28
2022-08-26T00:33:06.265Z,101380.88
2022-08-26T00:36:19.934Z,101375.75
2022-08-26T00:39:24.190Z,101371.47
2022-08-26T00:42:27.920Z,101373.53
2022-08-26T00:45:43.354Z,101371.16
2022-08-26T00:48:53.692Z,101378.41
2022-08-26T00:52:02.203Z,101366.13
2022-08-26T00:55:11.333Z,101365.41
2022-08-26T00:58:25.983Z,101360.28
2022-08-26T01:01:30.781Z,101364.03
2022-08-26T01:04:39.987Z,101364.97
2022-08-26T01:07:46.431Z,101367.75
2022-08-26T01:10:50.178Z,101373.09
2022-08-26T01:13:57.289Z,101369.47
2022-08-26T01:17:03.252Z,101368.69
2022-08-26T01:20:25.186Z,101365.09
2022-08-26T01:23:34.939Z,101368.69
2022-08-26T01:26:44.779Z,101373.09
2022-08-26T01:29:51.750Z,101376.72
2022-08-26T01:33:00.123Z,101376.59
2022-08-26T01:36:05.695Z,101376.72
2022-08-26T01:39:11.607Z,101369.69
2022-08-26T01:42:19.337Z,101373.31
2022-08-26T01:45:28.757Z,101379.47
2022-08-26T01:48:35.942Z,101375.03
2022-08-26T01:51:44.493Z,101372.34
2022-08-26T01:54:50.596Z,101382.16
2022-08-26T01:57:58.312Z,101378.75
2022-08-26T02:01:02.676Z,101375.44
2022-08-26T02:04:19.134Z,101367.75
2022-08-26T02:07:26.662Z,101376.94
2022-08-26T02:10:32.744Z,101370.09
2022-08-26T02:13:42.949Z,101359.00
2022-08-26T02:16:51.316Z,101370.09
2022-08-26T02:19:55.712Z,101369.16
2022-08-26T02:22:59.358Z,101373.84
2022-08-26T02:26:12.049Z,101374.88
2022-08-26T02:29:26.155Z,101371.72
2022-08-26T02:32:29.963Z,101374.88
2022-08-26T02:35:43.245Z,101377.31
2022-08-26T02:38:47.684Z,101376.03
2022-08-26T02:41:52.781Z,101365.53
2022-08-26T02:44:56.787Z,101361.38
2022-08-26T02:48:00.866Z,101364.25
2022-08-26T02:51:04.955Z,101358.06
2022-08-26T02:54:08.747Z,101351.97
2022-08-26T02:57:15.016Z,101367.19
2022-08-26T03:00:19.353Z,101355.91
2022-08-26T03:03:23.501Z,101360.59
2022-08-26T03:06:27.433Z,101360.59
2022-08-26T03:09:31.187Z,101358.03
2022-08-26T03:12:37.140Z,101353.75
2022-08-26T03:15:41.671Z,101356.63
2022-08-26T03:18:47.039Z,101349.88
2022-08-26T03:21:57.885Z,101349.16
2022-08-26T03:25:01.806Z,101342.94
2022-08-26T03:28:07.853Z,101340.28
2022-08-26T03:31:12.382Z,101341.34
2022-08-26T03:34:17.250Z,101336.22
2022-08-26T03:37:21.704Z,101333.78
2022-08-26T03:40:25.958Z,101331.31
2022-08-26T03:43:34.246Z,101334.09
2022-08-26T03:46:39.125Z,101327.03
2022-08-26T03:49:43.116Z,101335.97
2022-08-26T03:52:47.189Z,101339.69
2022-08-26T03:55:51.998Z,101331.06
2022-08-26T03:58:57.906Z,101328.50
2022-08-26T04:02:02.207Z,101328.72
2022-08-26T04:05:06.679Z,101332.53
2022-08-26T04:08:10.301Z,101325.50
2022-08-26T04:11:19.931Z,101333.69
2022-08-26T04:14:28.290Z,101331.41
2022-08-26T04:17:31.976Z,101332.25
2022-08-26T04:20:35.661Z,101327.03
2022-08-26T04:23:47.312Z,101331.59
2022-08-26T04:26:52.323Z,101327.44
2022-08-26T04:29:57.594Z,101328.38
2022-08-26T04:33:01.739Z,101328.47
2022-08-26T04:36:06.939Z,101326.84
2022-08-26T04:39:14.900Z,101328.94
2022-08-26T04:42:25.883Z,101336.16
2022-08-26T04:45:31.219Z,101336.16
2022-08-26T04:48:35.547Z,101334.25
2022-08-26T04:51:40.011Z,101337.59
2022-08-26T04:54:43.720Z,101341.31
2022-08-26T04:57:47.474Z,101343.69
2022-08-26T05:00:56.392Z,101339.00
2022-08-26T05:04:01.459Z,101332.84
2022-08-26T05:07:09.670Z,101332.84
2022-08-26T05:10:13.566Z,101339.47
2022-08-26T05:13:22.418Z,101334.16
2022-08-26T05:16:28.947Z,101336.50
2022-08-26T05:19:33.313Z,101337.84
2022-08-26T05:22:36.946Z,101338.28
2022-08-26T05:25:43.572Z,101331.91
2022-08-26T05:28:47.468Z,101331.31
2022-08-26T05:31:54.177Z,101334.13
2022-08-26T05:34:59.810Z,101331.69
2022-08-26T05:38:12.260Z,101343.09
2022-08-26T05:41:20.666Z,101347.56
2022-08-26T05:44:24.544Z,101350.69
2022-08-26T05:47:30.206Z,101350.59
2022-08-26T05:50:38.144Z,101357.50
2022-08-26T05:53:54.928Z,101349.00
2022-08-26T05:56:58.660Z,101349.00
2022-08-26T06:00:02.500Z,101344.47
2022-08-26T06:03:09.134Z,101344.06
2022-08-26T06:06:16.953Z,101345.63
2022-08-26T06:09:24.859Z,101351.59
2022-08-26T06:12:28.448Z,101351.31
2022-08-26T06:15:32.181Z,101344.47
2022-08-26T06:18:42.316Z,101342.13
2022-08-26T06:21:51.291Z,101348.53
2022-08-26T06:25:15.426Z,101349.63
2022-08-26T06:28:19.339Z,101344.25
2022-08-26T06:31:25.354Z,101349.31
2022-08-26T06:34:31.228Z,101345.72
2022-08-26T06:37:34.912Z,101352.34
2022-08-26T06:40:44.770Z,101353.69
2022-08-26T06:43:49.647Z,101353.25
2022-08-26T06:46:53.620Z,101359.38
2022-08-26T06:49:59.211Z,101370.47
2022-08-26T06:53:03.194Z,101374.00
2022-08-26T06:56:11.192Z,101374.59
2022-08-26T06:59:16.125Z,101369.41
2022-08-26T07:02:20.814Z,101367.53
2022-08-26T07:05:26.410Z,101364.97
2022-08-26T07:08:30.211Z,101370.56
2022-08-26T07:11:36.198Z,101364.97
2022-08-26T07:14:39.847Z,101366.03
2022-08-26T07:17:47.584Z,101359.59
2022-08-26T07:20:52.559Z,101364.09
2022-08-26T07:24:01.422Z,101361.84
2022-08-26T07:27:09.189Z,101360.84
2022-08-26T07:30:14.771Z,101362.22
2022-08-26T07:33:19.128Z,101359.00
2022-08-26T07:36:28.444Z,101358.63
2022-08-26T07:39:32.966Z,101357.94
2022-08-26T07:42:36.891Z,101363.06
2022-08-26T07:45:46.562Z,101364.50
2022-08-26T07:48:52.091Z,101363.91
2022-08-26T07:51:58.395Z,101367.41
2022-08-26T07:55:04.454Z,101366.59
2022-08-26T07:58:08.579Z,101368.03
2022-08-26T08:01:13.542Z,101377.47
2022-08-26T08:04:26.073Z,101381.19
2022-08-26T08:07:44.461Z,101378.38
2022-08-26T08:10:48.998Z,101386.06
2022-08-26T08:13:56.418Z,101384.13
2022-08-26T08:17:00.504Z,101386.34
2022-08-26T08:20:06.247Z,101387.25
2022-08-26T08:23:11.184Z,101384.13
2022-08-26T08:26:15.530Z,101383.16
2022-08-26T08:29:20.523Z,101385.63
2022-08-26T08:32:25.113Z,101380.59
2022-08-26T08:35:29.264Z,101386.41
2022-08-26T08:38:35.262Z,101389.50
2022-08-26T08:41:55.541Z,101386.69
2022-08-26T08:45:06.343Z,101385.75
2022-08-26T08:48:28.047Z,101382.81
2022-08-26T08:51:41.899Z,101385.97
2022-08-26T08:54:48.883Z,101377.75
2022-08-26T08:58:05.024Z,101384.00
2022-08-26T09:01:25.979Z,101381.03
2022-08-26T09:04:59.860Z,101377.72
2022-08-26T09:08:08.457Z,101377.22
2022-08-26T09:11:18.571Z,101373.94
2022-08-26T09:14:22.821Z,101373.47
2022-08-26T09:17:44.374Z,101378.72
2022-08-26T09:20:58.015Z,101377.34
2022-08-26T09:24:02.387Z,101369.78
2022-08-26T09:27:07.654Z,101369.91
2022-08-26T09:30:24.990Z,101369.63
2022-08-26T09:33:32.928Z,101370.44
2022-08-26T09:36:41.598Z,101368.31
2022-08-26T09:39:45.450Z,101374.28
2022-08-26T09:43:15.880Z,101367.19
2022-08-26T09:46:27.765Z,101366.19
2022-08-26T09:49:36.671Z,101372.13
2022-08-26T09:52:42.743Z,101362.03
2022-08-26T09:55:49.780Z,101361.84
2022-08-26T09:58:55.982Z,101353.78
2022-08-26T10:02:36.321Z,101360.72
2022-08-26T10:05:47.709Z,101353.09
2022-08-26T10:08:55.982Z,101362.84
2022-08-26T10:12:05.848Z,101361.13
2022-08-26T10:15:14.568Z,101358.59
2022-08-26T10:18:30.715Z,101360.03
2022-08-26T10:21:46.411Z,101354.03
2022-08-26T10:25:03.140Z,101351.28
2022-08-26T10:28:18.302Z,101358.53
2022-08-26T10:31:38.176Z,101355.84
2022-08-26T10:34:45.031Z,101355.16
2022-08-26T10:37:54.675Z,101351.34
2022-08-26T10:41:09.924Z,101350.91
2022-08-26T10:44:19.233Z,101342.91
2022-08-26T10:47:36.083Z,101339.25
2022-08-26T10:50:44.603Z,101337.50
2022-08-26T10:54:03.292Z,101339.97
2022-08-26T10:57:16.975Z,101334.78
2022-08-26T11:00:40.047Z,101334.03
2022-08-26T11:04:04.153Z,101323.53
2022-08-26T11:07:37.806Z,101328.91
2022-08-26T11:11:05.564Z,101322.56
2022-08-26T11:14:11.995Z,101323.88
2022-08-26T11:18:01.399Z,101330.22
2022-08-26T11:22:02.592Z,101322.41
2022-08-26T11:25:14.230Z,101316.34
2022-08-26T11:28:35.576Z,101311.56
2022-08-26T11:31:57.556Z,101306.03
2022-08-26T11:35:03.932Z,101304.28
2022-08-26T11:38:22.857Z,101298.34
2022-08-26T11:41:29.889Z,101301.25
2022-08-26T11:44:49.291Z,101292.81
2022-08-26T11:47:56.268Z,101289.78
2022-08-26T11:51:03.822Z,101281.63
2022-08-26T11:54:15.899Z,101285.31
2022-08-26T11:57:19.862Z,101282.19
2022-08-26T12:00:33.534Z,101278.94
2022-08-26T12:03:47.633Z,101275.53
2022-08-26T12:06:53.486Z,101270.59
2022-08-26T12:10:02.452Z,101269.09
2022-08-26T12:13:07.803Z,101271.75
2022-08-26T12:16:12.267Z,101271.84
2022-08-26T12:19:28.150Z,101261.44
2022-08-26T12:22:38.843Z,101260.13
2022-08-26T12:25:48.996Z,101257.34
2022-08-26T12:28:58.111Z,101249.84
2022-08-26T12:32:13.627Z,101246.44
2022-08-26T12:35:21.494Z,101233.28
2022-08-26T12:38:28.527Z,101233.22
2022-08-26T12:41:59.177Z,101225.72
2022-08-26T12:45:07.783Z,101222.44
2022-08-26T12:48:14.880Z,101215.44
2022-08-26T12:51:26.408Z,101212.06
2022-08-26T12:54:44.059Z,101198.59
2022-08-26T12:57:49.220Z,101184.69
2022-08-26T13:00:55.052Z,101191.06
2022-08-26T13:03:58.668Z,101187.22
2022-08-26T13:07:25.178Z,101198.97
2022-08-26T13:10:38.870Z,101213.78
2022-08-26T13:13:43.870Z,101230.94
2022-08-26T13:16:48.342Z,101225.56
2022-08-26T13:19:51.990Z,101223.97
2022-08-26T13:22:58.836Z,101218.44
2022-08-26T13:26:02.947Z,101222.50
2022-08-26T13:29:10.382Z,101222.84
2022-08-26T13:32:15.227Z,101226.69
2022-08-26T13:35:19.024Z,101223.41
2022-08-26T13:38:33.177Z,101253.88
2022-08-26T13:41:37.495Z,101270.97
2022-08-26T13:44:44.390Z,101280.69
2022-08-26T13:47:48.807Z,101296.66
2022-08-26T13:50:53.204Z,101300.44
2022-08-26T13:53:57.622Z,101305.50
2022-08-26T13:57:01.221Z,101323.84
2022-08-26T14:00:11.049Z,101342.94
2022-08-26T14:03:14.912Z,101348.63
2022-08-26T14:06:18.882Z,101349.59
2022-08-26T14:09:22.455Z,101350.31
2022-08-26T14:12:26.451Z,101335.84
2022-08-26T14:15:35.903Z,101318.09
2022-08-26T14:18:45.266Z,101314.44
2022-08-26T14:21:52.279Z,101313.88
2022-08-26T14:24:56.611Z,101318.63
2022-08-26T14:28:01.569Z,101302.44
2022-08-26T14:31:07.980Z,101294.00
2022-08-26T14:34:15.010Z,101290.63
2022-08-26T14:37:18.834Z,101294.78
2022-08-26T14:40:25.094Z,101306.28
2022-08-26T14:43:28.890Z,101304.75
2022-08-26T14:46:42.939Z,101298.34
2022-08-26T14:49:46.672Z,101297.75
2022-08-26T14:53:07.820Z,101296.44
2022-08-26T14:56:16.141Z,101308.84
2022-08-26T14:59:23.627Z,101310.00
2022-08-26T15:02:33.543Z,101321.44
2022-08-26T15:05:38.017Z,101335.09
2022-08-26T15:08:41.634Z,101337.88
2022-08-26T15:11:47.632Z,101321.94
2022-08-26T15:14:51.712Z,101313.94
2022-08-26T15:17:56.748Z,101317.50
2022-08-26T15:21:02.894Z,101313.34
2022-08-26T15:24:08.676Z,101319.50
2022-08-26T15:27:12.458Z,101328.28
2022-08-26T15:30:16.668Z,101327.41
2022-08-26T15:33:22.283Z,101320.38
2022-08-26T15:36:26.181Z,101314.06
2022-08-26T15:39:29.972Z,101305.22
2022-08-26T15:42:33.529Z,101307.44
2022-08-26T15:45:37.778Z,101305.09
2022-08-26T15:48:43.055Z,101303.06
2022-08-26T15:51:48.266Z,101301.38
2022-08-26T15:54:51.891Z,101306.06
2022-08-26T15:57:55.820Z,101296.25
2022-08-26T16:01:00.420Z,101290.16
2022-08-26T16:04:06.627Z,101295.19
2022-08-26T16:07:15.765Z,101296.44
2022-08-26T16:10:22.435Z,101300.72
2022-08-26T16:13:29.303Z,101296.69
2022-08-26T16:16:48.964Z,101293.06
2022-08-26T16:19:53.963Z,101292.94
2022-08-26T16:22:58.127Z,101295.84
2022-08-26T16:26:02.101Z,101300.94
2022-08-26T16:29:09.546Z,101306.16
2022-08-26T16:32:13.185Z,101309.28
2022-08-26T16:35:18.870Z,101317.72
2022-08-26T16:38:22.730Z,101318.03
2022-08-26T16:41:30.504Z,101319.75
2022-08-26T16:44:44.350Z,101318.28
2022-08-26T16:47:48.186Z,101327.88
2022-08-26T16:50:55.351Z,101334.59
2022-08-26T16:54:04.023Z,101352.09
2022-08-26T16:57:13.674Z,101360.16
2022-08-26T17:00:24.540Z,101362.84
2022-08-26T17:03:28.696Z,101366.38
2022-08-26T17:06:34.453Z,101371.50
2022-08-26T17:09:38.322Z,101364.66
2022-08-26T17:12:45.477Z,101372.56
2022-08-26T17:15:54.220Z,101378.22
2022-08-26T17:19:02.519Z,101384.38
2022-08-26T17:22:09.091Z,101381.63
2022-08-26T17:25:15.767Z,101386.53
2022-08-26T17:28:19.370Z,101382.88
2022-08-26T17:31:24.527Z,101395.25
2022-08-26T17:34:28.718Z,101393.31
2022-08-26T17:37:34.769Z,101404.19
2022-08-26T17:40:41.492Z,101407.72
2022-08-26T17:43:46.240Z,101402.25
2022-08-26T17:46:50.007Z,101396.53
2022-08-26T17:49:53.726Z,101397.34
2022-08-26T17:52:59.324Z,101396.00
2022-08-26T17:56:03.329Z,101398.13
2022-08-26T17:59:07.051Z,101391.03
2022-08-26T18:02:11.419Z,101405.97
2022-08-26T18:05:17.808Z,101400.53
2022-08-26T18:08:23.599Z,101414.91
2022-08-26T18:11:28.396Z,101411.50
2022-08-26T18:14:34.154Z,101407.03
2022-08-26T18:17:39.135Z,101410.00
2022-08-26T18:20:45.188Z,101401.44
2022-08-26T18:23:52.668Z,101398.78
2022-08-26T18:26:56.804Z,101405.16
2022-08-26T18:30:01.570Z,101413.34
2022-08-26T18:33:05.263Z,101410.69
2022-08-26T18:36:09.281Z,101416.31
2022-08-26T18:39:16.022Z,101414.50
2022-08-26T18:42:19.793Z,101419.19
2022-08-26T18:45:24.410Z,101421.06
2022-08-26T18:48:28.372Z,101427.38
2022-08-26T18:51:35.308Z,101436.00
2022-08-26T18:54:40.497Z,101430.03
2022-08-26T18:57:44.228Z,101424.63
2022-08-26T19:00:48.179Z,101430.03
2022-08-26T19:03:51.813Z,101424.72
2022-08-26T19:06:56.079Z,101423.94
2022-08-26T19:10:01.103Z,101426.50
2022-08-26T19:13:09.375Z,101429.47
2022-08-26T19:16:18.751Z,101426.72
2022-08-26T19:19:25.354Z,101428.41
2022-08-26T19:22:29.311Z,101429.47
2022-08-26T19:25:34.383Z,101424.34
2022-08-26T19:28:40.822Z,101413.50
2022-08-26T19:31:45.390Z,101414.34
2022-08-26T19:34:52.152Z,101400.38
2022-08-26T19:37:55.729Z,101393.75
2022-08-26T19:41:01.762Z,101402.59
2022-08-26T19:44:09.847Z,101403.94
2022-08-26T19:47:14.283Z,101407.84
2022-08-26T19:50:19.764Z,101402.50
2022-08-26T19:53:23.683Z,101412.22
2022-08-26T19:56:32.823Z,101410.59
2022-08-26T19:59:37.327Z,101412.38
2022-08-26T20:02:41.924Z,101418.56
2022-08-26T20:05:45.855Z,101418.47
2022-08-26T20:08:50.821Z,101427.41
2022-08-26T20:12:02.126Z,101418.84
2022-08-26T20:15:07.631Z,101416.97
2022-08-26T20:18:38.340Z,101421.25
2022-08-26T20:21:42.606Z,101423.44
2022-08-26T20:24:46.582Z,101429.50
2022-08-26T20:27:51.554Z,101427.97
2022-08-26T20:30:55.180Z,101420.97
2022-08-26T20:33:59.413Z,101428.06
2022-08-26T20:37:04.072Z,101429.19
2022-08-26T20:40:10.817Z,101434.38
2022-08-26T20:43:17.226Z,101432.81
2022-08-26T20:46:24.528Z,101433.66
2022-08-26T20:49:30.364Z,101439.38
2022-08-26T20:52:36.753Z,101443.66
2022-08-26T20:55:40.864Z,101448.19
2022-08-26T20:58:46.399Z,101455.34
2022-08-26T21:01:50.958Z,101450.84
2022-08-26T21:04:54.913Z,101448.19
2022-08-26T21:07:58.517Z,101448.50
2022-08-26T21:11:02.259Z,101447.91
2022-08-26T21:14:16.075Z,101448.84
2022-08-26T21:17:20.803Z,101457.59
2022-08-26T21:20:24.955Z,101453.31
2022-08-26T21:23:29.350Z,101463.28
2022-08-26T21:26:34.143Z,101468.59
2022-08-26T21:29:39.109Z,101475.81
2022-08-26T21:32:42.872Z,101472.22
2022-08-26T21:35:53.575Z,101477.56
2022-08-26T21:38:57.954Z,101470.59
2022-08-26T21:42:01.492Z,101475.16
2022-08-26T21:45:08.524Z,101475.53
2022-08-26T21:48:12.074Z,101476.38
2022-08-26T21:51:18.107Z,101481.69
2022-08-26T21:54:21.694Z,101476.56
2022-08-26T21:57:27.481Z,101471.44
2022-08-26T22:00:32.430Z,101475.81
2022-08-26T22:03:46.648Z,101474.00
2022-08-26T22:06:57.583Z,101476.94
2022-08-26T22:10:02.208Z,101473.50
2022-08-26T22:13:06.424Z,101470.00
2022-08-26T22:16:12.866Z,101470.28
2022-08-26T22:19:17.518Z,101464.19
2022-08-26T22:22:21.219Z,101463.63
2022-08-26T22:25:24.816Z,101469.97
2022-08-26T22:28:29.306Z,101472.72
2022-08-26T22:31:37.729Z,101466.03
2022-08-26T22:34:42.731Z,101474.09
2022-08-26T22:37:46.381Z,101478.47
2022-08-26T22:40:55.265Z,101478.56
2022-08-26T22:43:58.928Z,101476.00
2022-08-26T22:47:03.979Z,101481.97
2022-08-26T22:50:10.031Z,101483.69
2022-08-26T22:53:14.903Z,101486.16
2022-08-26T22:56:19.139Z,101481.03
2022-08-26T22:59:23.303Z,101486.63
2022-08-26T23:02:28.335Z,101490.22
2022-08-26T23:05:33.216Z,101487.28
2022-08-26T23:08:37.248Z,101490.81
2022-08-26T23:11:44.772Z,101493.66
2022-08-26T23:14:48.971Z,101489.78
2022-08-26T23:17:58.552Z,101487.13
2022-08-26T23:21:02.805Z,101476.41
2022-08-26T23:24:07.215Z,101479.91
2022-08-26T23:27:11.018Z,101478.38
2022-08-26T23:30:21.697Z,101476.00
2022-08-26T23:33:46.913Z,101475.41
2022-08-26T23:36:49.964Z,101464.88
2022-08-26T23:39:54.442Z,101472.09
2022-08-26T23:43:03.519Z,101462.13
2022-08-26T23:46:07.514Z,101464.97
2022-08-26T23:49:12.892Z,101456.16
2022-08-26T23:52:33.957Z,101455.28
2022-08-26T23:55:40.107Z,101450.84
2022-08-26T23:58:44.594Z,101448.41
